• Join FlightAware (Why Join?)
  • Login
  • US Flag 
10:47AM EDT


 

Airport Tracker/Info


-or-


 

Live Flight TrackerFlight Track Log ✈ SWA1377 ✈ 22-Apr-2013 ✈ KSAT - KMDW

Flight Track Log - Related Links

Times and Time Zones

All times are in EDT time to prevent confusion due to time zone crossing. See the SWA1377 flight status page for this flight to view local times or setup timezone preferences in your user account.

Time Position Orientation Groundspeed Altitude Reporting Facility
EDT Latitude Longitude Course Direction KTS MPH feet Rate Location/Type
07:11AM 29.5200 -98.4569 127° Southeast 154 177 1,800  Level Houston Center
07:12AM 29.4956 -98.4192 127° Southeast 186 214 3,200 1,920 Climbing Houston Center
07:13AM 29.4858 -98.4031 125° Southeast 188 216 4,000 2,100 Climbing Houston Center
07:13AM 29.5006 -98.3608 68° East 248 285 5,300 1,800 Climbing Houston Center
07:14AM 29.5219 -98.3558 11° North 250 288 5,800 2,280 Climbing Houston Center
07:15AM 29.5958 -98.3622 356° North 268 308 8,400 2,400 Climbing Houston Center
07:16AM 29.6753 -98.3667 357° North 286 329 10,700 2,400 Climbing Houston Center
07:17AM 29.7753 -98.3728 357° North 337 388 13,300 2,640 Climbing Houston Center
07:18AM 29.8736 -98.3786 357° North 351 404 16,100 2,820 Climbing Houston Center
07:19AM 29.9761 -98.3850 357° North 368 423 19,100 2,700 Climbing Houston Center
07:20AM 30.0811 -98.3908 357° North 376 433 21,700 2,280 Climbing Houston Center
07:21AM 30.1908 -98.3803 North 395 455 23,800 1,980 Climbing Houston Center
07:22AM 30.3100 -98.3633 North 417 480 25,800 1,860 Climbing Houston Center
07:23AM 30.4217 -98.3469 North 429 494 27,700 1,800 Climbing Houston Center
07:24AM 30.5428 -98.3294 North 432 497 29,500 1,620 Climbing Houston Center
07:25AM 30.6642 -98.3114 North 433 498 31,100 1,620 Climbing Houston Center
07:26AM 30.7875 -98.2928 North 437 503 32,800 1,500 Climbing Houston Center
07:27AM 30.9111 -98.2758 North 439 505 34,200 1,500 Climbing Houston Center
07:27AM 30.9744 -98.2686 North 439 505 35,000 1,500 Climbing Fort Worth Center
07:28AM 31.0936 -98.2478 North 439 505 36,400 1,260 Climbing Fort Worth Center
07:29AM 31.2147 -98.2294 North 439 505 37,600 900 Climbing Fort Worth Center
07:30AM 31.3233 -98.2158 North 439 505 38,300 660 Climbing Fort Worth Center
07:31AM 31.4406 -98.1706 18° North 439 505 39,000 300 Climbing Fort Worth Center
07:32AM 31.5517 -98.0958 30° Northeast 446 513 39,000  Level Fort Worth Center
07:33AM 31.6647 -98.0211 29° Northeast 452 520 39,000  Level Fort Worth Center
07:34AM 31.7736 -97.9486 30° Northeast 457 526 39,000  Level Fort Worth Center
07:35AM 31.8972 -97.8636 30° Northeast 463 533 39,000  Level Fort Worth Center
07:36AM 32.0061 -97.7758 34° Northeast 463 533 39,000  Level Fort Worth Center
07:37AM 32.1128 -97.6931 33° Northeast 468 539 39,000  Level Fort Worth Center
07:38AM 32.2236 -97.6075 33° Northeast 468 539 39,000  Level Fort Worth Center
07:39AM 32.3219 -97.5339 32° Northeast 463 533 39,000  Level Fort Worth Center
07:40AM 32.4283 -97.4478 34° Northeast 463 533 39,000  Level Fort Worth Center
07:41AM 32.5369 -97.3642 33° Northeast 463 533 39,000  Level Fort Worth Center
07:42AM 32.6475 -97.2753 34° Northeast 463 533 39,000  Level Fort Worth Center
07:43AM 32.7558 -97.1886 34° Northeast 463 533 39,000  Level Fort Worth Center
07:44AM 32.8769 -97.0969 32° Northeast 463 533 39,000  Level Fort Worth Center
07:45AM 32.9747 -97.0197 34° Northeast 463 533 39,000  Level Fort Worth Center
07:46AM 33.0850 -96.9350 33° Northeast 475 547 39,000  Level Fort Worth Center
07:47AM 33.1911 -96.8500 34° Northeast 463 533 39,000  Level Fort Worth Center
07:48AM 33.2972 -96.7672 33° Northeast 457 526 39,000  Level Fort Worth Center
07:49AM 33.4011 -96.6844 34° Northeast 457 526 39,000  Level Fort Worth Center
07:50AM 33.5069 -96.5989 34° Northeast 457 526 39,000  Level Fort Worth Center
07:51AM 33.6089 -96.5181 33° Northeast 451 519 39,000  Level Fort Worth Center
07:52AM 33.7250 -96.4244 34° Northeast 451 519 39,000  Level Fort Worth Center
07:53AM 33.8308 -96.3383 34° Northeast 456 525 39,000  Level Fort Worth Center
07:54AM 33.9342 -96.2544 34° Northeast 456 525 39,000  Level Fort Worth Center
07:55AM 34.0400 -96.1678 34° Northeast 461 531 39,000  Level Fort Worth Center
07:56AM 34.1289 -96.0964 34° Northeast 453 521 39,000  Level Fort Worth Center
07:57AM 34.2344 -96.0092 34° Northeast 448 516 39,000  Level Fort Worth Center
07:58AM 34.3397 -95.9219 34° Northeast 448 516 39,000  Level Fort Worth Center
07:59AM 34.4411 -95.8397 34° Northeast 443 510 39,000  Level Fort Worth Center
08:00AM 34.5422 -95.7572 34° Northeast 443 510 39,000  Level Fort Worth Center
08:01AM 34.6453 -95.6719 34° Northeast 443 510 39,000  Level Fort Worth Center
08:02AM 34.7464 -95.5889 34° Northeast 438 504 39,000  Level Fort Worth Center
08:03AM 34.8597 -95.4956 34° Northeast 438 504 39,000  Level Fort Worth Center
08:04AM 34.9628 -95.4119 34° Northeast 443 510 39,000  Level Fort Worth Center
08:07AM 35.1819 -95.2225 35° Northeast 443 510 39,000  Level Kansas City Center
08:08AM 35.2844 -95.1369 34° Northeast 446 513 39,000  Level Kansas City Center
08:09AM 35.4033 -95.0389 34° Northeast 448 516 39,000  Level Memphis Center
08:10AM 35.5047 -94.9528 35° Northeast 448 516 39,000  Level Memphis Center
08:11AM 35.6081 -94.8639 35° Northeast 448 516 39,000 -180 Level Memphis Center
08:12AM 35.7114 -94.7750 35° Northeast 448 516 38,700 -660 Descending Memphis Center
08:13AM 35.8144 -94.6883 34° Northeast 443 510 37,700 -900 Descending Memphis Center
08:14AM 35.9153 -94.6039 34° Northeast 443 510 37,000 -360 Descending Memphis Center
08:15AM 36.0186 -94.5142 35° Northeast 443 510 37,000  Level Memphis Center
08:16AM 36.1194 -94.4269 35° Northeast 443 510 37,000  Level Memphis Center
08:17AM 36.2203 -94.3394 35° Northeast 443 510 37,000  Level Memphis Center
08:18AM 36.3253 -94.2492 35° Northeast 443 510 37,000  Level Memphis Center
08:19AM 36.4494 -94.1392 35° Northeast 450 518 37,000  Level Kansas City Center
08:20AM 36.5522 -94.0489 35° Northeast 452 520 37,000  Level Kansas City Center
08:21AM 36.6544 -93.9594 35° Northeast 451 519 37,000  Level Kansas City Center
08:22AM 36.7564 -93.8703 35° Northeast 450 518 37,000  Level Kansas City Center
08:23AM 36.8578 -93.7800 35° Northeast 449 517 37,000  Level Kansas City Center
08:24AM 36.9642 -93.6858 35° Northeast 448 516 37,000  Level Kansas City Center
08:25AM 37.0667 -93.5936 36° Northeast 451 519 37,000  Level Kansas City Center
08:26AM 37.1692 -93.5006 36° Northeast 453 521 37,000  Level Kansas City Center
08:27AM 37.2747 -93.4106 34° Northeast 454 522 37,000  Level Kansas City Center
08:28AM 37.3781 -93.3175 36° Northeast 454 522 37,000  Level Kansas City Center
08:29AM 37.4808 -93.2206 37° Northeast 458 527 37,000  Level Kansas City Center
08:30AM 37.5839 -93.1247 36° Northeast 458 527 37,000  Level Kansas City Center
08:31AM 37.6878 -93.0278 36° Northeast 460 529 37,000  Level Kansas City Center
08:32AM 37.7911 -92.9319 36° Northeast 459 528 37,000  Level Kansas City Center
08:33AM 37.9133 -92.8172 37° Northeast 453 521 37,000  Level Kansas City Center
08:34AM 37.9969 -92.7381 37° Northeast 452 520 37,000  Level Kansas City Center
08:35AM 38.0994 -92.6411 37° Northeast 456 525 37,000  Level Kansas City Center
08:36AM 38.2239 -92.5244 36° Northeast 455 524 37,000  Level Kansas City Center
08:37AM 38.3336 -92.4392 31° Northeast 458 527 37,000  Level Kansas City Center
08:38AM 38.4481 -92.3631 28° Northeast 460 529 37,000  Level Kansas City Center
08:39AM 38.5603 -92.2861 28° Northeast 456 525 37,000  Level Kansas City Center
08:40AM 38.6739 -92.2133 27° Northeast 454 522 37,000  Level Kansas City Center
08:41AM 38.7767 -92.1161 36° Northeast 466 536 37,000  Level Kansas City Center
08:42AM 38.8703 -92.0042 43° Northeast 461 531 37,000  Level Kansas City Center
08:43AM 38.9636 -91.8925 43° Northeast 458 527 37,000  Level Kansas City Center
08:44AM 39.0578 -91.7806 43° Northeast 458 527 37,000  Level Kansas City Center
08:45AM 39.1628 -91.6569 42° Northeast 456 525 37,000  Level Kansas City Center
08:46AM 39.2500 -91.5333 48° Northeast 467 537 37,000  Level Kansas City Center
08:47AM 39.3281 -91.4000 53° Northeast 468 539 37,000  Level Kansas City Center
08:48AM 39.4047 -91.2681 53° Northeast 462 532 37,000 -480 Level Kansas City Center
08:50AM 39.4797 -91.1353 54° Northeast 459 528 36,000 -960 Descending Kansas City Center
08:51AM 39.5550 -91.0022 54° Northeast 457 526 35,000 -960 Descending Kansas City Center
08:52AM 39.6333 -90.8694 53° Northeast 460 529 34,100 -960 Descending Kansas City Center
08:53AM 39.7131 -90.7403 51° Northeast 461 531 33,100 -1,020 Descending Kansas City Center
08:54AM 39.7897 -90.6122 52° Northeast 448 516 32,000 -1,020 Descending Kansas City Center
08:55AM 39.8772 -90.5067 43° Northeast 434 499 31,000 -540 Descending Kansas City Center
08:56AM 39.9956 -90.4061 33° Northeast 425 489 31,000  Level Kansas City Center
08:56AM 40.0719 -90.3372 35° Northeast 421 484 31,000  Level Chicago Center
08:58AM 40.1675 -90.2514 34° Northeast 417 480 31,000 -60 Level Chicago Center
08:59AM 40.2650 -90.1661 34° Northeast 420 483 30,900 -540 Descending Chicago Center
09:00AM 40.3614 -90.0797 34° Northeast 420 483 29,900 -1,020 Descending Chicago Center
09:01AM 40.4697 -89.9814 35° Northeast 422 486 28,900 -1,380 Descending Chicago Center
09:02AM 40.5672 -89.8947 34° Northeast 424 488 27,100 -1,920 Descending Chicago Center
09:03AM 40.6592 -89.8083 35° Northeast 409 471 25,000 -1,860 Descending Chicago Center
09:04AM 40.7244 -89.6908 54° Northeast 403 464 23,300 -1,980 Descending Chicago Center
09:05AM 40.7861 -89.5450 61° Northeast 382 440 21,000 -2,220 Descending Chicago Center
09:06AM 40.8386 -89.4261 60° Northeast 368 423 18,800 -1,980 Descending Chicago Center
09:07AM 40.8869 -89.3131 60° Northeast 355 409 17,000 -900 Descending Chicago Center
09:08AM 40.9406 -89.2033 57° Northeast 353 406 17,000 -120 Level Chicago Center
09:09AM 41.0061 -89.1125 46° Northeast 352 405 16,800 -1,020 Descending Chicago Center
09:10AM 41.0711 -89.0194 47° Northeast 346 398 15,000 -1,980 Descending Chicago Center
09:11AM 41.1456 -88.9094 48° Northeast 336 387 12,800 -1,920 Descending Chicago Center
09:12AM 41.2053 -88.8197 48° Northeast 328 377 11,100 -1,320 Descending Chicago Center
09:13AM 41.2644 -88.7347 47° Northeast 316 364 10,100 -1,080 Descending Chicago Center
09:14AM 41.3172 -88.6575 48° Northeast 287 330 8,900 -1,260 Descending Chicago Center
09:15AM 41.3703 -88.5800 48° Northeast 283 326 7,600 -1,260 Descending Chicago Center
09:16AM 41.4314 -88.5225 35° Northeast 270 311 6,300 -780 Descending Chicago Center
09:17AM 41.4822 -88.4542 45° Northeast 257 296 6,000 -300 Descending Chicago Center
09:18AM 41.5047 -88.3386 75° East 266 306 5,700 -540 Descending Chicago Center
09:19AM 41.5208 -88.2431 77° East 264 304 5,000 -360 Descending Chicago Center
09:20AM 41.5383 -88.1497 76° East 259 298 5,000  Level Chicago Center
09:21AM 41.5556 -88.0553 76° East 258 297 5,000 -60 Level Chicago Center
09:22AM 41.5728 -87.9611 76° East 259 298 4,900 -780 Descending Chicago Center
09:23AM 41.6078 -87.8783 60° Northeast 260 299 3,500 -1,320 Descending Chicago Center
09:24AM 41.6333 -87.8167 61° Northeast 258 297 2,900 -780 Descending Chicago TRACON
09:25AM 41.6667 -87.7500 56° Northeast 234 269 2,400 -600 Descending Chicago TRACON
09:26AM 41.7000 -87.6833 56° Northeast 213 245 1,800 -420 Descending Chicago TRACON
09:27AM 41.7500 -87.6833 360° North 189 217 1,700 -60 Descending Chicago TRACON
09:28AM 41.8000 -87.6833 360° North 167 192 1,700 -420 Level Chicago TRACON
09:29AM 41.8000 -87.7333 270° West 135 155 900 -780 Descending Chicago TRACON